Petersburg, ND (58272)

6:28 PM CDT on September 19, 2014 (GMT -0500)
Grand Forks Air Force Base | Change Station
CLOSE
Current Station
Airport
Location: Grand Forks AFB,
Elevation: 912 ft
Nearby Weather Stations

Elev 912 ft 47.96 °N, 97.40 °W | Updated 30 minutes ago

Clear
Clear
81 °F
Feels Like 81 °F
N
14
Wind Variable Wind from West
Gusts 22 mph

Today
High -- | Low -- °F
--% Chance of Precip.
Yesterday
High -- | Low -- °F
Precip. -- in
7:14 AM 7:35 PM
Waning Crescent, 16% visible
Pressure 29.52 in
Visibility 10.0 miles
Clouds Clear
Heat Index 81 °F
Dew Point 54 °F
Humidity 38%
Rainfall 0.00 in
Snow Depth Not available.
UV 1 out of 12
Pollen 3.60 out of 12
Air Quality Not available.
Flu Activity Not available.
METAR KRDR 192258Z AUTO 28012G19KT 10SM CLR 27/12 A2951 RMK AO2 SLP994 T02740121

More Conditions Fewer Conditions

Pressure 29.52 in
Visibility 10.0 miles
Clouds Clear
Heat Index 81 °F
Dew Point 54 °F
Humidity 38%
Rainfall 0.00 in
Snow Depth Not available.
UV 1 out of 12
Pollen 3.60 out of 12
Air Quality Not available.
Flu Activity Not available.
METAR KRDR 192258Z AUTO 28012G19KT 10SM CLR 27/12 A2951 RMK AO2 SLP994 T02740121

More Conditions Fewer Conditions

10-Day Weather Forecast

Almanac

Astronomy

Sep. 19, 2014 Rise Set
Actual Time 7:14 AM CDT 7:35 PM CDT
Civil Twilight 6:43 AM CDT 8:06 PM CDT
Nautical Twilight 6:06 AM CDT 8:43 PM CDT
Astronomical Twilight 5:28 AM CDT 9:21 PM CDT
Moon 2:45 AM CDT 5:18 PM CDT
Length of Visible Light 13h 23m
Length of Day
12h 21m
Tomorrow will be 3m 26s shorter.
Waning Crescent, 16% of the Moon is Illuminated
Today
Waning Crescent
Sep 24
New
Oct 1
First Quarter
Oct 8
Full
Oct 15
Last Quarter

Today's Extremes

State Highs State Lows

Community

WunderPhotos

Upload Photos

1,754,724 photos uploaded!

Nearby

Snow Depth

Station Depth Elevation
No new snow has been reported.

Earthquake Activity

City Distance Mag. Time & Date
No recent earthquake activity has been reported nearby.
Minimum magnitude displayed is 2.5.

Coastal Water Temperatures

Place Temperature
No Stations Reporting

Nearby Weather Stations